In Rescue
 
Open Full Screen Window  High Contrast Mode
Wind Gusting 00 knots
09
July 13, 2020 9:51 PM CDT
Weather Information
Wind Direction
  170 °
Wind Speed
  09 kt (10 mph)
Wind Gust
  00 kt (0 mph)
Altimeter
29.80 in
Visibility
10 SM
Temperature
27° C
81° F
Dewpoint
19° C
66° F
Humidity
62%
1hr Rain Fall
00.00 in.
24hr Rain Fall
00.00 in.
Sky Condition
Clear
VFR

METAR KMWM 140251Z AUTO 17009KT 10SM CLR 27/19 A2980 RMK AO2

FAA Disclaimer: The data displayed is for advisory purposes only and is not to be used for flight planning or operations.